Varnadiep — PBIB — position and weather

sailwx.info

Track history (hours):
 
Tides and Currents Weather Stations Pressure Air Temp Water Temp Dewpoint Dewpoint Depression Visibility Wind Speed Wind Dir Waves Ship Positions

Varnadiep

Last reported at 2014-Nov-15 01:20 UTC. Time now 2014-Nov-24 06:58 UTC.
Position N 35°59' W 005°31'.
Warning: this ship's position is 9 days out of date.

Length 118 m; draft 6.3 m.

Type: Cargo ship. MMSI: 244729000.

Date/timePositionNaut miles runAvg speedWind from/ knotsBaromVisibWave heightAir tempDewpointWater temp
2014-Nov-15 01:20N 35°59' W 005°31'6 7.9
2014-Nov-15 00:33N 36°01' W 005°24'9 9.4
2014-Nov-14 23:33N 36°02' W 005°12'217 8.0
2014-Nov-13 20:30N 37°17' W 000°58'1111.2
2014-Nov-13 19:33N 37°24' W 000°48'1312.5
2014-Nov-13 18:33N 37°32' W 000°37'1312.7
2014-Nov-13 17:33N 37°42' W 000°27'1212.6
2014-Nov-13 16:33N 37°53' W 000°18'1212.3
2014-Nov-13 15:34N 38°03' W 000°10'12512.1
2014-Nov-13 05:11N 39°57' E 000°57'811.9
2014-Nov-13 04:33N 40°04' E 000°59'1211.8
2014-Nov-13 03:33N 40°16' E 001°01'1211.9
2014-Nov-13 02:33N 40°28' E 001°04'1212.2
2014-Nov-13 01:33N 40°40' E 001°06'30 0.6
2014-Nov-11 02:10N 40°57' E 001°39'711.2
2014-Nov-11 01:32N 40°54' E 001°47'1110.9
2014-Nov-11 00:33N 40°50' E 002°00'1110.6
2014-Nov-10 23:33N 40°47' E 002°13'9 8.8
2014-Nov-10 22:33N 40°44' E 002°25'4 4.0
2014-Nov-10 21:33N 40°40' E 002°25'9 8.6
2014-Nov-10 20:33N 40°45' E 002°35'8 8.3
2014-Nov-10 19:33N 40°39' E 002°43'6 6.2
2014-Nov-10 18:33N 40°40' E 002°51'1010.2
2014-Nov-10 17:33N 40°47' E 002°60'9 9.4
2014-Nov-10 16:33N 40°41' E 003°09'10 9.7
2014-Nov-10 15:33N 40°35' E 003°19'25510.1
2014-Nov-09 14:19N 38°48' E 008°19'1310.9
2014-Nov-09 13:10N 38°45' E 008°35'710.7
2014-Nov-09 12:32N 38°45' E 008°43'1111.5
2014-Nov-09 11:33N 38°44' E 008°58'1111.0
2014-Nov-09 10:33N 38°43' E 009°12'4 4.2
2014-Nov-09 09:33N 38°43' E 009°17'1211.5
2014-Nov-09 08:31N 38°42' E 009°32'15011.5
2014-Nov-08 19:29N 38°29' E 012°43'1111.7
2014-Nov-08 18:33N 38°28' E 012°57'1211.8
2014-Nov-08 17:33N 38°27' E 013°12'1211.7
2014-Nov-08 16:33N 38°26' E 013°27'1111.4
2014-Nov-08 15:33N 38°25' E 013°41'6111.9
2014-Nov-08 10:25N 38°20' E 014°59'1112.0
2014-Nov-08 09:32N 38°20' E 015°12'1212.1
2014-Nov-08 08:33N 38°20' E 015°27'10 6.9
2014-Nov-08 07:07N 38°14' E 015°38'34010.4
2014-Nov-06 22:23N 36°21' E 022°21'1011.7
2014-Nov-06 21:32N 36°22' E 022°34'1212.5
2014-Nov-06 20:33N 36°25' E 022°48'1212.1
2014-Nov-06 19:32N 36°25' E 023°04'1111.3
2014-Nov-06 18:33N 36°29' E 023°17'1312.9
2014-Nov-06 17:34N 36°40' E 023°25'1312.4
2014-Nov-06 16:29N 36°50' E 023°35'1712.6
2014-Nov-06 15:06N 37°05' E 023°47'712.5
2014-Nov-06 14:33N 37°11' E 023°52'1312.8
2014-Nov-06 13:32N 37°22' E 024°01'1313.0
2014-Nov-06 12:33N 37°32' E 024°10'1312.6
2014-Nov-06 11:29N 37°43' E 024°19'1212.9
2014-Nov-06 10:32N 37°52' E 024°30'27211.8
2014-Nov-05 11:29N 40°55' E 028°51'9 9.6
2014-Nov-05 10:33N 40°51' E 029°01'1010.2
2014-Nov-05 09:33N 40°44' E 029°12'1312.3
2014-Nov-05 08:31N 40°45' E 029°28'  
Track history (hours):
 
Tides and Currents Weather Stations Pressure Air Temp Water Temp Dewpoint Dewpoint Depression Visibility Wind Speed Wind Dir Waves Ship Positions

Varnadiep

Last reported at 2014-Nov-15 01:20 UTC. Time now 2014-Nov-24 06:58 UTC.
Position N 35°59' W 005°31'.
Warning: this ship's position is 9 days out of date.

Length 118 m; draft 6.3 m.

Type: Cargo ship. MMSI: 244729000.

Date/timePositionNaut miles runAvg speedWind from/ knotsBaromVisibWave heightAir tempDewpointWater temp
2014-Nov-15 01:20N 35°59' W 005°31'6 7.9
2014-Nov-15 00:33N 36°01' W 005°24'9 9.4
2014-Nov-14 23:33N 36°02' W 005°12'217 8.0
2014-Nov-13 20:30N 37°17' W 000°58'1111.2
2014-Nov-13 19:33N 37°24' W 000°48'1312.5
2014-Nov-13 18:33N 37°32' W 000°37'1312.7
2014-Nov-13 17:33N 37°42' W 000°27'1212.6
2014-Nov-13 16:33N 37°53' W 000°18'1212.3
2014-Nov-13 15:34N 38°03' W 000°10'12512.1
2014-Nov-13 05:11N 39°57' E 000°57'811.9
2014-Nov-13 04:33N 40°04' E 000°59'1211.8
2014-Nov-13 03:33N 40°16' E 001°01'1211.9
2014-Nov-13 02:33N 40°28' E 001°04'1212.2
2014-Nov-13 01:33N 40°40' E 001°06'30 0.6
2014-Nov-11 02:10N 40°57' E 001°39'711.2
2014-Nov-11 01:32N 40°54' E 001°47'1110.9
2014-Nov-11 00:33N 40°50' E 002°00'1110.6
2014-Nov-10 23:33N 40°47' E 002°13'9 8.8
2014-Nov-10 22:33N 40°44' E 002°25'4 4.0
2014-Nov-10 21:33N 40°40' E 002°25'9 8.6
2014-Nov-10 20:33N 40°45' E 002°35'8 8.3
2014-Nov-10 19:33N 40°39' E 002°43'6 6.2
2014-Nov-10 18:33N 40°40' E 002°51'1010.2
2014-Nov-10 17:33N 40°47' E 002°60'9 9.4
2014-Nov-10 16:33N 40°41' E 003°09'10 9.7
2014-Nov-10 15:33N 40°35' E 003°19'25510.1
2014-Nov-09 14:19N 38°48' E 008°19'1310.9
2014-Nov-09 13:10N 38°45' E 008°35'710.7
2014-Nov-09 12:32N 38°45' E 008°43'1111.5
2014-Nov-09 11:33N 38°44' E 008°58'1111.0
2014-Nov-09 10:33N 38°43' E 009°12'4 4.2
2014-Nov-09 09:33N 38°43' E 009°17'1211.5
2014-Nov-09 08:31N 38°42' E 009°32'15011.5
2014-Nov-08 19:29N 38°29' E 012°43'1111.7
2014-Nov-08 18:33N 38°28' E 012°57'1211.8
2014-Nov-08 17:33N 38°27' E 013°12'1211.7
2014-Nov-08 16:33N 38°26' E 013°27'1111.4
2014-Nov-08 15:33N 38°25' E 013°41'6111.9
2014-Nov-08 10:25N 38°20' E 014°59'1112.0
2014-Nov-08 09:32N 38°20' E 015°12'1212.1
2014-Nov-08 08:33N 38°20' E 015°27'10 6.9
2014-Nov-08 07:07N 38°14' E 015°38'34010.4
2014-Nov-06 22:23N 36°21' E 022°21'1011.7
2014-Nov-06 21:32N 36°22' E 022°34'1212.5
2014-Nov-06 20:33N 36°25' E 022°48'1212.1
2014-Nov-06 19:32N 36°25' E 023°04'1111.3
2014-Nov-06 18:33N 36°29' E 023°17'1312.9
2014-Nov-06 17:34N 36°40' E 023°25'1312.4
2014-Nov-06 16:29N 36°50' E 023°35'1712.6
2014-Nov-06 15:06N 37°05' E 023°47'712.5
2014-Nov-06 14:33N 37°11' E 023°52'1312.8
2014-Nov-06 13:32N 37°22' E 024°01'1313.0
2014-Nov-06 12:33N 37°32' E 024°10'1312.6
2014-Nov-06 11:29N 37°43' E 024°19'1212.9
2014-Nov-06 10:32N 37°52' E 024°30'27211.8
2014-Nov-05 11:29N 40°55' E 028°51'9 9.6
2014-Nov-05 10:33N 40°51' E 029°01'1010.2
2014-Nov-05 09:33N 40°44' E 029°12'1312.3
2014-Nov-05 08:31N 40°45' E 029°28'  

Dump ship's entire track history